createdAt,value
2022-11-24T00:01:26.850Z,6.00
2022-11-24T00:04:04.714Z,5.90
2022-11-24T00:06:34.109Z,5.80
2022-11-24T00:09:01.792Z,5.80
2022-11-24T00:11:31.426Z,5.80
2022-11-24T00:13:59.455Z,5.80
2022-11-24T00:16:29.196Z,5.80
2022-11-24T00:18:58.318Z,5.80
2022-11-24T00:21:27.502Z,5.80
2022-11-24T00:23:54.459Z,5.90
2022-11-24T00:26:24.322Z,5.90
2022-11-24T00:28:53.166Z,5.80
2022-11-24T00:31:23.504Z,5.80
2022-11-24T00:33:52.565Z,5.80
2022-11-24T00:36:21.861Z,5.80
2022-11-24T00:38:53.161Z,5.90
2022-11-24T00:41:20.065Z,5.90
2022-11-24T00:43:47.087Z,6.00
2022-11-24T00:46:14.188Z,6.00
2022-11-24T00:48:41.324Z,6.00
2022-11-24T00:51:10.516Z,6.10
2022-11-24T00:53:37.635Z,6.20
2022-11-24T00:56:05.304Z,6.20
2022-11-24T00:58:33.201Z,6.20
2022-11-24T01:01:13.814Z,6.30
2022-11-24T01:03:42.307Z,6.30
2022-11-24T01:06:11.075Z,6.30
2022-11-24T01:08:39.502Z,6.30
2022-11-24T01:11:12.185Z,6.30
2022-11-24T01:13:39.862Z,6.30
2022-11-24T01:16:13.336Z,6.30
2022-11-24T01:18:40.295Z,6.30
2022-11-24T01:21:10.278Z,6.30
2022-11-24T01:23:37.561Z,6.30
2022-11-24T01:26:08.759Z,6.20
2022-11-24T01:28:35.754Z,6.10
2022-11-24T01:31:05.527Z,6.20
2022-11-24T01:33:33.593Z,6.20
2022-11-24T01:36:01.278Z,6.20
2022-11-24T01:38:28.619Z,6.20
2022-11-24T01:41:07.990Z,6.20
2022-11-24T01:43:35.090Z,6.20
2022-11-24T01:46:23.086Z,6.10
2022-11-24T01:49:22.754Z,6.20
2022-11-24T01:52:01.179Z,6.20
2022-11-24T01:54:33.739Z,6.20
2022-11-24T01:57:16.648Z,6.20
2022-11-24T01:59:46.624Z,6.10
2022-11-24T02:02:14.463Z,6.10
2022-11-24T02:04:42.589Z,6.10
2022-11-24T02:07:11.502Z,6.10
2022-11-24T02:09:48.934Z,6.10
2022-11-24T02:12:15.933Z,6.10
2022-11-24T02:14:44.880Z,6.10
2022-11-24T02:17:11.930Z,6.20
2022-11-24T02:19:53.078Z,6.10
2022-11-24T02:22:40.910Z,6.20
2022-11-24T02:25:16.817Z,6.30
2022-11-24T02:27:50.718Z,6.30
2022-11-24T02:30:20.767Z,6.30
2022-11-24T02:32:47.690Z,6.30
2022-11-24T02:35:15.013Z,6.10
2022-11-24T02:37:41.941Z,6.10
2022-11-24T02:40:09.560Z,6.10
2022-11-24T02:42:44.482Z,6.10
2022-11-24T02:45:13.001Z,6.10
2022-11-24T02:47:39.915Z,6.20
2022-11-24T02:50:07.145Z,6.20
2022-11-24T02:52:34.035Z,6.30
2022-11-24T02:55:01.032Z,6.30
2022-11-24T02:57:27.983Z,6.30
2022-11-24T02:59:55.025Z,6.40
2022-11-24T03:02:22.188Z,6.40
2022-11-24T03:04:49.223Z,6.40
2022-11-24T03:07:16.239Z,6.50
2022-11-24T03:09:43.331Z,6.50
2022-11-24T03:12:10.349Z,6.50
2022-11-24T03:14:37.434Z,6.50
2022-11-24T03:17:04.530Z,6.50
2022-11-24T03:19:31.498Z,6.50
2022-11-24T03:21:58.435Z,6.50
2022-11-24T03:24:25.502Z,6.40
2022-11-24T03:26:52.699Z,6.50
2022-11-24T03:29:19.674Z,6.50
2022-11-24T03:31:46.651Z,6.40
2022-11-24T03:34:13.660Z,6.40
2022-11-24T03:36:40.608Z,6.40
2022-11-24T03:39:07.700Z,6.40
2022-11-24T03:41:34.633Z,6.30
2022-11-24T03:44:01.659Z,6.30
2022-11-24T03:46:28.642Z,6.20
2022-11-24T03:48:55.626Z,6.20
2022-11-24T03:51:22.578Z,6.20
2022-11-24T03:53:49.489Z,6.20
2022-11-24T03:56:16.591Z,6.20
2022-11-24T03:58:43.633Z,6.20
2022-11-24T04:01:10.617Z,6.20
2022-11-24T04:03:37.603Z,6.20
2022-11-24T04:06:04.554Z,6.30
2022-11-24T04:08:31.553Z,6.30
2022-11-24T04:10:58.444Z,6.30
2022-11-24T04:13:26.691Z,6.30
2022-11-24T04:15:53.871Z,6.30
2022-11-24T04:18:21.691Z,6.30
2022-11-24T04:20:51.942Z,6.20
2022-11-24T04:23:19.724Z,6.10
2022-11-24T04:25:46.713Z,6.00
2022-11-24T04:28:13.730Z,6.00
2022-11-24T04:30:44.731Z,5.90
2022-11-24T04:33:12.856Z,5.90
2022-11-24T04:35:39.820Z,5.90
2022-11-24T04:38:06.819Z,5.80
2022-11-24T04:40:33.879Z,5.80
2022-11-24T04:43:00.904Z,5.80
2022-11-24T04:45:27.793Z,5.80
2022-11-24T04:47:54.797Z,5.90
2022-11-24T04:50:22.042Z,5.90
2022-11-24T04:52:49.086Z,5.90
2022-11-24T04:55:16.059Z,6.00
2022-11-24T04:57:42.991Z,6.10
2022-11-24T05:00:11.080Z,6.10
2022-11-24T05:02:38.342Z,6.10
2022-11-24T05:05:06.660Z,6.20
2022-11-24T05:07:34.890Z,6.10
2022-11-24T05:10:20.855Z,6.10
2022-11-24T05:12:59.575Z,6.00
2022-11-24T05:15:27.146Z,6.00
2022-11-24T05:17:54.319Z,6.00
2022-11-24T05:20:21.692Z,6.00
2022-11-24T05:22:48.790Z,5.90
2022-11-24T05:25:15.874Z,5.90
2022-11-24T05:27:43.014Z,5.90
2022-11-24T05:30:11.124Z,5.80
2022-11-24T05:32:38.079Z,5.90
2022-11-24T05:35:05.661Z,6.00
2022-11-24T05:37:32.691Z,6.00
2022-11-24T05:39:59.626Z,5.90
2022-11-24T05:42:46.638Z,6.00
2022-11-24T05:45:19.704Z,6.00
2022-11-24T05:47:47.461Z,6.00
2022-11-24T05:50:18.410Z,5.90
2022-11-24T05:52:45.616Z,5.80
2022-11-24T05:55:14.874Z,5.80
2022-11-24T05:57:42.329Z,5.80
2022-11-24T06:00:10.688Z,5.90
2022-11-24T06:02:37.727Z,6.00
2022-11-24T06:05:05.196Z,6.00
2022-11-24T06:07:32.186Z,6.00
2022-11-24T06:09:59.306Z,6.00
2022-11-24T06:12:26.229Z,5.90
2022-11-24T06:14:53.542Z,5.80
2022-11-24T06:17:20.486Z,5.80
2022-11-24T06:19:50.256Z,5.80
2022-11-24T06:22:19.035Z,5.80
2022-11-24T06:24:46.595Z,5.90
2022-11-24T06:27:14.198Z,5.90
2022-11-24T06:29:41.345Z,5.90
2022-11-24T06:32:08.576Z,5.90
2022-11-24T06:34:36.374Z,6.00
2022-11-24T06:37:03.585Z,5.90
2022-11-24T06:39:30.548Z,5.90
2022-11-24T06:41:57.721Z,5.90
2022-11-24T06:44:24.897Z,5.90
2022-11-24T06:46:51.925Z,5.90
2022-11-24T06:49:19.021Z,5.90
2022-11-24T06:51:46.059Z,6.00
2022-11-24T06:54:21.230Z,6.00
2022-11-24T06:56:48.476Z,6.00
2022-11-24T06:59:20.621Z,6.10
2022-11-24T07:01:47.666Z,6.00
2022-11-24T07:04:15.304Z,6.00
2022-11-24T07:06:43.113Z,6.00
2022-11-24T07:09:11.342Z,6.00
2022-11-24T07:11:39.032Z,6.00
2022-11-24T07:14:06.113Z,5.90
2022-11-24T07:16:33.871Z,5.90
2022-11-24T07:19:01.066Z,6.00
2022-11-24T07:21:29.388Z,6.00
2022-11-24T07:23:57.679Z,6.00
2022-11-24T07:26:25.219Z,6.10
2022-11-24T07:28:52.325Z,6.20
2022-11-24T07:31:22.284Z,6.20
2022-11-24T07:33:54.036Z,6.30
2022-11-24T07:36:21.978Z,6.20
2022-11-24T07:38:49.663Z,6.30
2022-11-24T07:41:19.617Z,6.40
2022-11-24T07:43:47.065Z,6.50
2022-11-24T07:46:16.364Z,6.60
2022-11-24T07:48:43.414Z,6.70
2022-11-24T07:51:10.587Z,6.70
2022-11-24T07:53:37.805Z,6.80
2022-11-24T07:56:06.494Z,6.80
2022-11-24T07:58:36.075Z,6.80
2022-11-24T08:01:14.936Z,6.80
2022-11-24T08:03:42.938Z,6.80
2022-11-24T08:06:30.031Z,6.80
2022-11-24T08:08:58.424Z,6.80
2022-11-24T08:11:27.144Z,6.80
2022-11-24T08:13:54.099Z,6.90
2022-11-24T08:16:21.366Z,6.90
2022-11-24T08:18:55.864Z,6.80
2022-11-24T08:21:23.780Z,6.80
2022-11-24T08:23:55.074Z,6.80
2022-11-24T08:26:22.047Z,6.80
2022-11-24T08:28:54.686Z,6.70
2022-11-24T08:31:21.840Z,6.70
2022-11-24T08:33:48.931Z,6.70
2022-11-24T08:36:18.366Z,6.70
2022-11-24T08:38:46.251Z,6.60
2022-11-24T08:41:16.618Z,6.60
2022-11-24T08:43:43.706Z,6.50
2022-11-24T08:46:14.463Z,6.50
2022-11-24T08:48:41.780Z,6.50
2022-11-24T08:51:14.763Z,6.50
2022-11-24T08:53:42.545Z,6.50
2022-11-24T08:56:10.927Z,6.50
2022-11-24T08:58:38.170Z,6.60
2022-11-24T09:01:16.514Z,6.70
2022-11-24T09:03:50.006Z,6.70
2022-11-24T09:06:24.103Z,6.70
2022-11-24T09:08:55.758Z,6.80
2022-11-24T09:11:23.348Z,6.80
2022-11-24T09:13:51.196Z,6.80
2022-11-24T09:16:24.495Z,6.80
2022-11-24T09:19:03.062Z,6.80
2022-11-24T09:21:31.371Z,6.70
2022-11-24T09:23:58.594Z,6.70
2022-11-24T09:26:28.659Z,6.60
2022-11-24T09:28:56.798Z,6.60
2022-11-24T09:31:26.609Z,6.60
2022-11-24T09:33:54.390Z,6.60
2022-11-24T09:36:21.911Z,6.70
2022-11-24T09:38:49.252Z,6.70
2022-11-24T09:41:24.632Z,6.70
2022-11-24T09:44:08.317Z,6.80
2022-11-24T09:46:53.620Z,6.90
2022-11-24T09:49:49.850Z,7.00
2022-11-24T09:52:23.168Z,7.10
2022-11-24T09:54:58.425Z,7.20
2022-11-24T09:57:31.416Z,7.20
2022-11-24T10:00:04.786Z,7.20
2022-11-24T10:02:32.431Z,7.30
2022-11-24T10:04:59.647Z,7.30
2022-11-24T10:07:55.366Z,7.30
2022-11-24T10:10:47.855Z,7.40
2022-11-24T10:13:49.322Z,7.50
2022-11-24T10:16:42.332Z,7.60
2022-11-24T10:19:14.916Z,7.60
2022-11-24T10:22:13.349Z,7.60
2022-11-24T10:25:00.584Z,7.70
2022-11-24T10:27:35.295Z,7.80
2022-11-24T10:30:02.868Z,7.80
2022-11-24T10:32:37.864Z,7.80
2022-11-24T10:35:39.439Z,7.70
2022-11-24T10:38:21.271Z,7.70
2022-11-24T10:40:58.625Z,7.80
2022-11-24T10:43:30.736Z,7.90
2022-11-24T10:46:08.957Z,8.00
2022-11-24T10:48:44.111Z,8.10
2022-11-24T10:51:30.883Z,8.10
2022-11-24T10:54:05.958Z,8.10
2022-11-24T10:56:40.287Z,8.20
2022-11-24T10:59:25.359Z,8.20
2022-11-24T11:01:53.134Z,8.20
2022-11-24T11:04:34.609Z,8.30
2022-11-24T11:07:19.352Z,8.20
2022-11-24T11:09:47.482Z,8.20
2022-11-24T11:12:43.307Z,8.30
2022-11-24T11:15:29.953Z,8.40
2022-11-24T11:18:01.340Z,8.40
2022-11-24T11:20:35.564Z,8.50
2022-11-24T11:23:14.825Z,8.40
2022-11-24T11:25:43.727Z,8.40
2022-11-24T11:28:30.934Z,8.40
2022-11-24T11:31:18.027Z,8.30
2022-11-24T11:34:18.195Z,8.50
2022-11-24T11:36:51.755Z,8.60
2022-11-24T11:39:35.055Z,8.60
2022-11-24T11:42:45.174Z,8.70
2022-11-24T11:45:33.833Z,8.80
2022-11-24T11:48:03.830Z,9.00
2022-11-24T11:53:58.943Z,9.20
2022-11-24T11:56:30.532Z,9.00
2022-11-24T11:59:18.964Z,8.90
2022-11-24T12:02:17.138Z,8.70
2022-11-24T12:05:12.475Z,8.60
2022-11-24T12:07:50.482Z,8.50
2022-11-24T12:10:37.614Z,8.40
2022-11-24T12:13:46.103Z,8.30
2022-11-24T12:16:34.842Z,8.20
2022-11-24T12:19:08.004Z,8.20
2022-11-24T12:21:47.475Z,8.10
2022-11-24T12:24:22.460Z,8.10
2022-11-24T12:27:05.543Z,8.10
2022-11-24T12:29:57.634Z,8.10
2022-11-24T12:32:33.839Z,8.00
2022-11-24T12:35:06.801Z,8.10
2022-11-24T12:38:02.641Z,8.20
2022-11-24T12:40:51.954Z,8.20
2022-11-24T12:43:33.947Z,8.30
2022-11-24T12:46:38.489Z,8.10
2022-11-24T12:49:28.696Z,8.00
2022-11-24T12:52:03.213Z,7.90
2022-11-24T12:54:38.038Z,7.90
2022-11-24T12:57:10.803Z,7.90
2022-11-24T12:59:45.653Z,8.10
2022-11-24T13:02:24.805Z,8.30
2022-11-24T13:05:01.703Z,8.40
2022-11-24T13:07:46.881Z,8.50
2022-11-24T13:10:54.231Z,8.50
2022-11-24T13:13:16.106Z,8.40
2022-11-24T13:18:48.562Z,8.10
2022-11-24T13:21:47.398Z,8.00
2022-11-24T13:24:18.122Z,7.90
2022-11-24T13:27:10.897Z,7.80
2022-11-24T13:29:38.815Z,7.80
2022-11-24T13:32:05.763Z,7.80
2022-11-24T13:34:42.981Z,7.80
2022-11-24T13:37:40.608Z,7.80
2022-11-24T13:40:13.755Z,7.80
2022-11-24T13:43:13.247Z,7.80
2022-11-24T13:45:40.655Z,7.70
2022-11-24T13:48:30.999Z,7.70
2022-11-24T13:51:01.628Z,7.70
2022-11-24T13:53:41.882Z,7.70
2022-11-24T13:56:17.548Z,7.70
2022-11-24T13:58:44.623Z,7.60
2022-11-24T14:01:17.089Z,7.60
2022-11-24T14:04:07.146Z,7.60
2022-11-24T14:06:42.797Z,7.50
2022-11-24T14:09:24.410Z,7.50
2022-11-24T14:12:17.474Z,7.50
2022-11-24T14:14:46.885Z,7.50
2022-11-24T14:17:14.622Z,7.60
2022-11-24T14:19:43.904Z,7.60
2022-11-24T14:22:40.088Z,7.60
2022-11-24T14:25:30.173Z,7.60
2022-11-24T14:27:57.757Z,7.50
2022-11-24T14:30:26.280Z,7.60
2022-11-24T14:33:03.672Z,7.60
2022-11-24T14:35:32.818Z,7.50
2022-11-24T14:38:02.605Z,7.50
2022-11-24T14:40:44.473Z,7.50
2022-11-24T14:43:32.275Z,7.50
2022-11-24T14:46:12.385Z,7.60
2022-11-24T14:48:50.662Z,7.60
2022-11-24T14:51:24.065Z,7.50
2022-11-24T14:54:04.263Z,7.50
2022-11-24T14:56:39.163Z,7.50
2022-11-24T14:59:27.405Z,7.40
2022-11-24T15:01:54.644Z,7.30
2022-11-24T15:05:01.516Z,7.20
2022-11-24T15:07:29.250Z,7.20
2022-11-24T15:10:01.477Z,7.10
2022-11-24T15:12:42.086Z,6.90
2022-11-24T15:15:14.787Z,6.80
2022-11-24T15:17:58.592Z,6.80
2022-11-24T15:20:35.373Z,6.70
2022-11-24T15:23:24.203Z,6.60
2022-11-24T15:26:01.148Z,6.60
2022-11-24T15:28:29.699Z,6.60
2022-11-24T15:31:10.307Z,6.40
2022-11-24T15:33:37.981Z,6.30
2022-11-24T15:36:05.388Z,6.30
2022-11-24T15:38:32.322Z,6.20
2022-11-24T15:41:00.964Z,6.20
2022-11-24T15:43:42.554Z,6.30
2022-11-24T15:46:09.788Z,6.30
2022-11-24T15:48:36.940Z,6.40
2022-11-24T15:51:07.251Z,6.40
2022-11-24T15:53:40.744Z,6.40
2022-11-24T15:56:19.247Z,6.40
2022-11-24T15:58:46.156Z,6.30
2022-11-24T16:01:13.182Z,6.20
2022-11-24T16:03:48.831Z,6.10
2022-11-24T16:06:25.282Z,6.00
2022-11-24T16:08:56.564Z,6.00
2022-11-24T16:11:24.008Z,6.00
2022-11-24T16:13:53.957Z,5.90
2022-11-24T16:16:23.441Z,5.90
2022-11-24T16:18:50.723Z,5.80
2022-11-24T16:21:17.828Z,5.80
2022-11-24T16:23:45.710Z,5.70
2022-11-24T16:26:12.684Z,5.70
2022-11-24T16:28:39.615Z,5.70
2022-11-24T16:31:06.611Z,5.60
2022-11-24T16:33:33.584Z,5.60
2022-11-24T16:36:00.555Z,5.50
2022-11-24T16:38:27.499Z,5.40
2022-11-24T16:40:56.432Z,5.40
2022-11-24T16:43:24.747Z,5.30
2022-11-24T16:46:21.857Z,5.20
2022-11-24T16:48:51.799Z,5.10
2022-11-24T16:51:20.628Z,5.10
2022-11-24T16:53:48.149Z,5.00
2022-11-24T16:56:16.551Z,4.90
2022-11-24T16:58:43.713Z,4.90
2022-11-24T17:01:12.630Z,4.80
2022-11-24T17:03:40.321Z,4.60
2022-11-24T17:06:11.750Z,4.50
2022-11-24T17:08:40.435Z,4.40
2022-11-24T17:11:12.034Z,4.30
2022-11-24T17:13:39.582Z,4.40
2022-11-24T17:16:11.743Z,4.30
2022-11-24T17:18:39.056Z,4.30
2022-11-24T17:21:09.951Z,4.30
2022-11-24T17:23:37.253Z,4.30
2022-11-24T17:26:06.572Z,4.30
2022-11-24T17:28:34.901Z,4.20
2022-11-24T17:31:12.176Z,4.10
2022-11-24T17:33:39.146Z,4.10
2022-11-24T17:36:07.031Z,4.00
2022-11-24T17:38:35.261Z,4.00
2022-11-24T17:41:02.843Z,3.90
2022-11-24T17:43:29.956Z,3.90
2022-11-24T17:45:59.832Z,3.90
2022-11-24T17:48:27.735Z,3.90
2022-11-24T17:51:01.787Z,3.90
2022-11-24T17:53:29.089Z,3.80
2022-11-24T17:55:59.773Z,3.70
2022-11-24T17:58:31.221Z,3.70
2022-11-24T18:00:58.869Z,3.70
2022-11-24T18:03:28.886Z,3.70
2022-11-24T18:05:56.271Z,3.70
2022-11-24T18:08:24.161Z,3.70
2022-11-24T18:10:51.172Z,3.60
2022-11-24T18:13:34.338Z,3.60
2022-11-24T18:16:07.621Z,3.40
2022-11-24T18:18:39.317Z,3.20
2022-11-24T18:21:11.812Z,3.10
2022-11-24T18:23:38.772Z,2.90
2022-11-24T18:26:06.430Z,2.80
2022-11-24T18:28:35.251Z,2.70
2022-11-24T18:31:09.450Z,2.70
2022-11-24T18:33:37.757Z,2.70
2022-11-24T18:36:06.799Z,2.70
2022-11-24T18:38:37.267Z,2.70
2022-11-24T18:41:06.013Z,2.70
2022-11-24T18:43:35.830Z,2.60
2022-11-24T18:46:16.851Z,2.60
2022-11-24T18:48:44.825Z,2.60
2022-11-24T18:51:15.651Z,2.60
2022-11-24T18:53:44.891Z,2.50
2022-11-24T18:56:16.899Z,2.50
2022-11-24T18:58:44.926Z,2.40
2022-11-24T19:01:13.470Z,2.50
2022-11-24T19:03:49.225Z,2.50
2022-11-24T19:06:20.506Z,2.50
2022-11-24T19:08:48.579Z,2.50
2022-11-24T19:11:20.585Z,2.50
2022-11-24T19:13:49.141Z,2.40
2022-11-24T19:16:17.855Z,2.40
2022-11-24T19:18:48.901Z,2.40
2022-11-24T19:21:20.658Z,2.40
2022-11-24T19:23:47.657Z,2.40
2022-11-24T19:26:15.024Z,2.30
2022-11-24T19:28:41.956Z,2.30
2022-11-24T19:31:11.123Z,2.30
2022-11-24T19:33:38.393Z,2.20
2022-11-24T19:36:06.803Z,2.30
2022-11-24T19:38:35.243Z,2.20
2022-11-24T19:41:07.560Z,2.10
2022-11-24T19:43:35.144Z,2.00
2022-11-24T19:46:02.433Z,1.90
2022-11-24T19:48:33.744Z,1.90
2022-11-24T19:51:06.592Z,1.90
2022-11-24T19:53:34.291Z,1.80
2022-11-24T19:56:24.259Z,1.80
2022-11-24T19:58:52.258Z,1.80
2022-11-24T20:01:29.979Z,1.70
2022-11-24T20:04:00.038Z,1.70
2022-11-24T20:06:29.248Z,1.70
2022-11-24T20:09:01.566Z,1.70
2022-11-24T20:11:29.305Z,1.60
2022-11-24T20:13:56.844Z,1.60
2022-11-24T20:16:26.786Z,1.60
2022-11-24T20:19:01.307Z,1.60
2022-11-24T20:21:31.591Z,1.60
2022-11-24T20:24:01.246Z,1.60
2022-11-24T20:26:31.478Z,1.60
2022-11-24T20:29:00.197Z,1.50
2022-11-24T20:31:32.950Z,1.50
2022-11-24T20:34:01.920Z,1.50
2022-11-24T20:36:30.671Z,1.50
2022-11-24T20:39:00.721Z,1.40
2022-11-24T20:41:33.979Z,1.40
2022-11-24T20:44:08.191Z,1.40
2022-11-24T20:46:38.228Z,1.40
2022-11-24T20:49:07.271Z,1.30
2022-11-24T20:51:37.336Z,1.30
2022-11-24T20:54:07.821Z,1.40
2022-11-24T20:56:40.272Z,1.30
2022-11-24T20:59:09.204Z,1.30
2022-11-24T21:01:42.713Z,1.40
2022-11-24T21:04:12.599Z,1.30
2022-11-24T21:06:39.816Z,1.30
2022-11-24T21:09:08.288Z,1.20
2022-11-24T21:11:36.549Z,1.20
2022-11-24T21:14:04.532Z,1.20
2022-11-24T21:16:34.038Z,1.20
2022-11-24T21:19:06.552Z,1.20
2022-11-24T21:21:35.783Z,1.20
2022-11-24T21:24:13.827Z,1.20
2022-11-24T21:26:41.876Z,1.10
2022-11-24T21:29:14.403Z,1.10
2022-11-24T21:31:41.994Z,1.00
2022-11-24T21:34:09.797Z,1.00
2022-11-24T21:36:40.721Z,0.90
2022-11-24T21:39:07.719Z,0.90
2022-11-24T21:41:34.837Z,0.80
2022-11-24T21:44:01.853Z,0.80
2022-11-24T21:46:39.030Z,0.90
2022-11-24T21:49:09.405Z,0.90
2022-11-24T21:51:36.564Z,1.00
2022-11-24T21:54:03.519Z,1.00
2022-11-24T21:56:30.441Z,1.00
2022-11-24T21:58:58.179Z,1.00
2022-11-24T22:01:28.128Z,1.00
2022-11-24T22:03:55.621Z,0.90
2022-11-24T22:06:22.912Z,0.90
2022-11-24T22:08:49.994Z,1.00
2022-11-24T22:11:22.482Z,1.00
2022-11-24T22:13:50.371Z,0.90
2022-11-24T22:16:22.641Z,1.00
2022-11-24T22:18:49.646Z,1.00
2022-11-24T22:21:29.305Z,1.00
2022-11-24T22:23:56.548Z,1.10
2022-11-24T22:26:24.261Z,1.00
2022-11-24T22:28:51.926Z,1.10
2022-11-24T22:31:21.349Z,1.10
2022-11-24T22:33:49.022Z,1.10
2022-11-24T22:36:17.476Z,1.10
2022-11-24T22:38:44.534Z,1.10
2022-11-24T22:41:16.255Z,1.00
2022-11-24T22:43:44.568Z,1.00
2022-11-24T22:46:14.435Z,0.90
2022-11-24T22:48:42.349Z,0.90
2022-11-24T22:51:24.894Z,0.90
2022-11-24T22:53:55.254Z,0.90
2022-11-24T22:56:22.926Z,0.90
2022-11-24T22:58:49.907Z,0.90
2022-11-24T23:01:19.954Z,0.90
2022-11-24T23:03:47.634Z,0.90
2022-11-24T23:06:17.013Z,0.90
2022-11-24T23:08:44.407Z,0.90
2022-11-24T23:11:18.848Z,0.80
2022-11-24T23:13:46.034Z,0.80
2022-11-24T23:16:16.279Z,0.80
2022-11-24T23:18:44.295Z,0.80
2022-11-24T23:21:16.978Z,0.70
2022-11-24T23:23:44.837Z,0.70
2022-11-24T23:26:16.391Z,0.70
2022-11-24T23:28:43.563Z,0.70
2022-11-24T23:31:16.337Z,0.70
2022-11-24T23:33:43.815Z,0.70
2022-11-24T23:36:16.399Z,0.70
2022-11-24T23:38:43.894Z,0.70
2022-11-24T23:41:17.158Z,0.70
2022-11-24T23:43:44.598Z,0.60
2022-11-24T23:46:20.837Z,0.60
2022-11-24T23:48:49.171Z,0.60
2022-11-24T23:51:21.314Z,0.50
2022-11-24T23:53:49.070Z,0.50
2022-11-24T23:56:19.375Z,0.50
2022-11-24T23:58:46.674Z,0.60
